Pagrindinis puslapis
METAR-TAF:

METAR-TAF

Oro uostai :

Šiaulių oro uostas

Šiauliai, Lietuva

platuma: 55-53-38N, ilguma: 023-23-42E, Aukštis: 135 m

Dabartinis oras

Ataskaita buvo paskelbta 28 minutes, ne 07:20 UTC
Vėjas 7 kt iš Pietų
Temperatūra -8°C
Drėgmė 100%
Slėgis 1013 hPa
Matomumas: 0600 m
Apsiniaukę ne aukštis 200 ft
įšaldymas rūko

METAR: EYSA 230720Z 17007KT 0800 0600NE R14L/1200D FZFG OVC002 M08/M08 Q1013 R14L/29//95 AMB NOSIG

Laikas: 09:48 (07:48 UTC)

Prognozė

Ataskaita buvo paskelbta 11 minutes, ne 07:37 UTC
Prognozė galioja nuo 23 metu 07 UTC su 23 metu 15 UTC
Vėjas 5 kt nuo kintamojo kryptimis
Matomumas: 0700 m
ne aukštis 200 ft
įšaldymas rūko
Laikinai
nuo 23 metu 08 UTC su 23 metu 12 UTC
Matomumas: 1500 m
Apsiniaukę ne aukštis 500 ft
rūkana
Tapsmas
nuo 23 metu 12 UTC su 23 metu 13 UTC
Matomumas: 6000 m
Su prošvaistėmis ne aukštis 1500 ft

TAF: EYSA 230737Z 2307/2315 VRB05KT 0700 FZFG VV002 TEMPO 2308/2312 1500 BR OVC005 BECMG 2312/2313 6000 BKN015

Orai ataskaitas ir orų prognozės (METAR, TAF).

turimą stotys yra geltonos ir raudonos taškus žemėlapyje.

Perkelti pele per norėdami pamatyti stoties vardą.

Tada spustelėkite, norėdami matyti oro stebėjimo ir prognozės.

Norėdami pakeisti žemėlapį: spustelėkite ant žalios mygtukų su juodo kryžiaus žemyn,; žalią mygtuką su brūkšneliu, jei norite nutolinti; arba žalių rodyklių gretimoms žemėlapius.


METAR-TAF: